createdAt,value
2022-11-24T00:01:17.826Z,7.18
2022-11-24T00:03:45.702Z,7.16
2022-11-24T00:06:14.421Z,7.18
2022-11-24T00:08:42.376Z,7.09
2022-11-24T00:11:20.081Z,7.09
2022-11-24T00:13:50.419Z,7.02
2022-11-24T00:16:46.128Z,7.03
2022-11-24T00:19:17.012Z,7.02
2022-11-24T00:21:45.932Z,7.01
2022-11-24T00:24:12.431Z,7.00
2022-11-24T00:26:38.797Z,6.93
2022-11-24T00:29:09.200Z,6.83
2022-11-24T00:31:37.825Z,6.82
2022-11-24T00:34:07.419Z,6.71
2022-11-24T00:36:35.349Z,6.74
2022-11-24T00:39:15.902Z,6.66
2022-11-24T00:41:42.725Z,6.68
2022-11-24T00:44:09.293Z,6.67
2022-11-24T00:46:36.364Z,6.62
2022-11-24T00:49:03.059Z,6.59
2022-11-24T00:51:30.311Z,6.62
2022-11-24T00:54:00.104Z,6.66
2022-11-24T00:56:27.517Z,6.77
2022-11-24T00:58:54.093Z,6.73
2022-11-24T01:01:26.403Z,6.78
2022-11-24T01:03:57.702Z,6.82
2022-11-24T01:06:28.578Z,6.93
2022-11-24T01:08:57.608Z,6.93
2022-11-24T01:11:27.331Z,6.95
2022-11-24T01:13:57.424Z,6.95
2022-11-24T01:16:33.108Z,6.88
2022-11-24T01:19:00.876Z,6.93
2022-11-24T01:21:27.492Z,6.97
2022-11-24T01:23:59.465Z,7.02
2022-11-24T01:26:25.882Z,7.02
2022-11-24T01:28:53.796Z,7.02
2022-11-24T01:31:22.496Z,7.03
2022-11-24T01:33:51.302Z,7.25
2022-11-24T01:36:17.969Z,7.35
2022-11-24T01:38:44.365Z,7.37
2022-11-24T01:41:20.565Z,7.40
2022-11-24T01:43:51.882Z,7.53
2022-11-24T01:46:54.051Z,7.60
2022-11-24T01:49:46.747Z,7.66
2022-11-24T01:52:22.053Z,7.68
2022-11-24T01:55:01.429Z,7.71
2022-11-24T01:57:43.032Z,7.77
2022-11-24T02:00:11.828Z,7.80
2022-11-24T02:02:38.370Z,7.80
2022-11-24T02:05:27.991Z,7.83
2022-11-24T02:07:57.144Z,7.81
2022-11-24T02:10:26.214Z,7.81
2022-11-24T02:12:55.977Z,7.80
2022-11-24T02:15:27.284Z,7.83
2022-11-24T02:17:53.632Z,7.83
2022-11-24T02:20:20.191Z,7.83
2022-11-24T02:23:01.857Z,7.80
2022-11-24T02:25:46.733Z,7.77
2022-11-24T02:28:19.154Z,7.71
2022-11-24T02:30:45.757Z,7.67
2022-11-24T02:33:13.065Z,7.67
2022-11-24T02:35:39.621Z,7.66
2022-11-24T02:38:06.180Z,7.67
2022-11-24T02:40:33.341Z,7.68
2022-11-24T02:43:07.914Z,7.66
2022-11-24T02:45:34.421Z,7.65
2022-11-24T02:48:00.926Z,7.59
2022-11-24T02:50:29.725Z,7.48
2022-11-24T02:52:56.263Z,7.44
2022-11-24T02:55:23.589Z,7.46
2022-11-24T02:57:54.767Z,7.46
2022-11-24T03:00:21.964Z,7.57
2022-11-24T03:02:48.460Z,7.52
2022-11-24T03:05:14.968Z,7.41
2022-11-24T03:07:41.805Z,7.38
2022-11-24T03:10:08.557Z,7.36
2022-11-24T03:12:34.927Z,7.47
2022-11-24T03:15:03.244Z,7.47
2022-11-24T03:17:31.769Z,7.39
2022-11-24T03:20:04.255Z,7.38
2022-11-24T03:22:33.737Z,7.29
2022-11-24T03:25:02.655Z,7.31
2022-11-24T03:27:33.088Z,7.31
2022-11-24T03:29:59.539Z,7.42
2022-11-24T03:32:25.969Z,7.50
2022-11-24T03:34:52.384Z,7.51
2022-11-24T03:37:18.862Z,7.61
2022-11-24T03:39:47.851Z,7.62
2022-11-24T03:42:16.716Z,7.70
2022-11-24T03:44:43.106Z,7.70
2022-11-24T03:47:11.517Z,7.73
2022-11-24T03:49:41.471Z,7.72
2022-11-24T03:52:08.517Z,7.74
2022-11-24T03:54:35.379Z,7.73
2022-11-24T03:57:01.963Z,7.72
2022-11-24T03:59:30.627Z,7.67
2022-11-24T04:01:57.057Z,7.66
2022-11-24T04:04:23.445Z,7.62
2022-11-24T04:06:49.834Z,7.61
2022-11-24T04:09:16.419Z,7.62
2022-11-24T04:12:01.125Z,7.67
2022-11-24T04:14:27.465Z,7.72
2022-11-24T04:16:53.857Z,7.78
2022-11-24T04:19:20.285Z,7.83
2022-11-24T04:21:46.611Z,7.85
2022-11-24T04:24:15.396Z,7.92
2022-11-24T04:26:43.966Z,7.95
2022-11-24T04:29:12.671Z,7.98
2022-11-24T04:31:39.168Z,8.01
2022-11-24T04:34:05.682Z,8.00
2022-11-24T04:36:34.655Z,7.96
2022-11-24T04:39:23.425Z,7.96
2022-11-24T04:41:48.227Z,7.98
2022-11-24T04:44:14.566Z,7.97
2022-11-24T04:46:41.017Z,7.96
2022-11-24T04:49:11.511Z,7.98
2022-11-24T04:51:41.694Z,8.01
2022-11-24T04:54:11.095Z,8.01
2022-11-24T04:56:37.561Z,8.04
2022-11-24T04:59:08.200Z,8.00
2022-11-24T05:01:37.785Z,8.01
2022-11-24T05:04:04.445Z,8.02
2022-11-24T05:06:30.884Z,8.05
2022-11-24T05:08:59.676Z,8.06
2022-11-24T05:11:26.184Z,8.06
2022-11-24T05:13:55.254Z,8.06
2022-11-24T05:16:21.666Z,8.07
2022-11-24T05:18:50.737Z,8.03
2022-11-24T05:21:19.479Z,8.03
2022-11-24T05:23:45.833Z,8.03
2022-11-24T05:26:12.339Z,7.99
2022-11-24T05:28:38.765Z,8.07
2022-11-24T05:31:05.279Z,8.09
2022-11-24T05:33:33.379Z,8.11
2022-11-24T05:36:02.109Z,8.17
2022-11-24T05:38:29.867Z,8.22
2022-11-24T05:41:05.261Z,8.22
2022-11-24T05:43:31.784Z,8.28
2022-11-24T05:46:01.951Z,8.29
2022-11-24T05:48:28.376Z,8.30
2022-11-24T05:50:58.520Z,8.29
2022-11-24T05:53:26.867Z,8.28
2022-11-24T05:55:53.498Z,8.31
2022-11-24T05:58:20.048Z,8.27
2022-11-24T06:00:46.418Z,8.27
2022-11-24T06:03:13.182Z,8.31
2022-11-24T06:05:41.905Z,8.34
2022-11-24T06:08:08.315Z,8.33
2022-11-24T06:10:35.008Z,8.30
2022-11-24T06:13:07.063Z,8.32
2022-11-24T06:15:34.305Z,8.32
2022-11-24T06:18:00.772Z,8.34
2022-11-24T06:20:32.263Z,8.35
2022-11-24T06:22:59.995Z,8.37
2022-11-24T06:25:29.555Z,8.35
2022-11-24T06:27:56.004Z,8.36
2022-11-24T06:30:24.634Z,8.33
2022-11-24T06:32:55.116Z,8.30
2022-11-24T06:35:21.590Z,8.26
2022-11-24T06:37:52.869Z,8.23
2022-11-24T06:40:19.303Z,8.20
2022-11-24T06:42:50.622Z,8.18
2022-11-24T06:45:17.166Z,8.16
2022-11-24T06:47:48.547Z,8.13
2022-11-24T06:50:15.087Z,8.12
2022-11-24T06:52:41.733Z,8.10
2022-11-24T06:55:10.828Z,8.11
2022-11-24T06:57:37.355Z,8.08
2022-11-24T07:00:06.022Z,8.08
2022-11-24T07:02:32.554Z,8.05
2022-11-24T07:04:59.016Z,8.05
2022-11-24T07:07:28.021Z,8.03
2022-11-24T07:09:54.502Z,8.03
2022-11-24T07:12:20.831Z,8.03
2022-11-24T07:14:47.178Z,8.03
2022-11-24T07:17:16.132Z,8.05
2022-11-24T07:19:45.009Z,8.05
2022-11-24T07:22:11.411Z,8.04
2022-11-24T07:24:40.187Z,8.05
2022-11-24T07:27:06.581Z,8.06
2022-11-24T07:29:32.981Z,8.06
2022-11-24T07:32:05.045Z,8.08
2022-11-24T07:34:34.648Z,8.09
2022-11-24T07:37:05.952Z,8.15
2022-11-24T07:39:32.377Z,8.17
2022-11-24T07:42:03.583Z,8.18
2022-11-24T07:44:29.974Z,8.18
2022-11-24T07:46:58.540Z,8.21
2022-11-24T07:49:25.369Z,8.21
2022-11-24T07:51:52.334Z,8.23
2022-11-24T07:54:18.789Z,8.26
2022-11-24T07:56:48.168Z,8.25
2022-11-24T07:59:15.090Z,8.26
2022-11-24T08:01:43.820Z,8.26
2022-11-24T08:04:10.403Z,8.25
2022-11-24T08:06:41.910Z,8.26
2022-11-24T08:09:10.894Z,8.24
2022-11-24T08:11:37.291Z,8.23
2022-11-24T08:14:08.733Z,8.27
2022-11-24T08:16:38.840Z,8.25
2022-11-24T08:19:05.366Z,8.24
2022-11-24T08:21:32.443Z,8.26
2022-11-24T08:24:01.259Z,8.29
2022-11-24T08:26:27.798Z,8.32
2022-11-24T08:28:57.478Z,8.33
2022-11-24T08:31:27.427Z,8.35
2022-11-24T08:33:55.512Z,8.38
2022-11-24T08:36:21.913Z,8.41
2022-11-24T08:38:49.719Z,8.45
2022-11-24T08:41:17.012Z,8.51
2022-11-24T08:43:43.451Z,8.57
2022-11-24T08:46:13.220Z,8.67
2022-11-24T08:48:40.420Z,8.75
2022-11-24T08:51:12.184Z,8.77
2022-11-24T08:53:39.668Z,8.77
2022-11-24T08:56:07.212Z,8.81
2022-11-24T08:58:37.348Z,8.77
2022-11-24T09:01:09.414Z,8.76
2022-11-24T09:03:42.209Z,8.75
2022-11-24T09:06:11.502Z,8.73
2022-11-24T09:08:40.622Z,8.72
2022-11-24T09:11:11.837Z,8.77
2022-11-24T09:13:38.782Z,8.84
2022-11-24T09:16:06.425Z,8.92
2022-11-24T09:18:33.034Z,8.97
2022-11-24T09:21:10.742Z,9.02
2022-11-24T09:23:37.735Z,9.19
2022-11-24T09:26:09.302Z,9.31
2022-11-24T09:28:36.062Z,9.35
2022-11-24T09:31:04.402Z,9.28
2022-11-24T09:33:34.464Z,9.22
2022-11-24T09:36:06.732Z,9.30
2022-11-24T09:38:33.113Z,9.40
2022-11-24T09:41:17.889Z,9.58
2022-11-24T09:44:17.039Z,9.74
2022-11-24T09:46:49.065Z,9.79
2022-11-24T09:49:30.883Z,9.77
2022-11-24T09:51:58.473Z,9.81
2022-11-24T09:54:29.829Z,9.84
2022-11-24T09:57:02.046Z,9.67
2022-11-24T09:59:28.401Z,9.64
2022-11-24T10:01:55.840Z,9.64
2022-11-24T10:04:26.568Z,9.65
2022-11-24T10:07:13.716Z,9.53
2022-11-24T10:10:04.113Z,9.47
2022-11-24T10:12:43.834Z,9.46
2022-11-24T10:15:44.776Z,9.49
2022-11-24T10:18:31.652Z,9.52
2022-11-24T10:21:07.231Z,9.59
2022-11-24T10:23:52.975Z,9.60
2022-11-24T10:26:31.564Z,9.47
2022-11-24T10:28:58.055Z,9.34
2022-11-24T10:31:24.450Z,9.41
2022-11-24T10:33:51.664Z,9.55
2022-11-24T10:36:39.862Z,9.76
2022-11-24T10:39:16.094Z,9.84
2022-11-24T10:41:53.804Z,9.86
2022-11-24T10:44:22.511Z,9.97
2022-11-24T10:46:53.878Z,9.92
2022-11-24T10:49:30.074Z,9.82
2022-11-24T10:52:08.703Z,9.83
2022-11-24T10:54:36.084Z,9.86
2022-11-24T10:57:03.158Z,9.89
2022-11-24T10:59:36.153Z,9.98
2022-11-24T11:02:23.219Z,10.07
2022-11-24T11:04:49.600Z,10.16
2022-11-24T11:07:25.287Z,10.23
2022-11-24T11:10:19.488Z,10.32
2022-11-24T11:12:46.072Z,10.35
2022-11-24T11:15:31.278Z,10.38
2022-11-24T11:18:04.220Z,10.31
2022-11-24T11:20:33.518Z,10.26
2022-11-24T11:23:16.726Z,10.11
2022-11-24T11:25:43.708Z,10.02
2022-11-24T11:28:27.853Z,10.00
2022-11-24T11:31:21.721Z,10.01
2022-11-24T11:34:04.688Z,9.97
2022-11-24T11:36:35.859Z,9.96
2022-11-24T11:39:03.929Z,9.98
2022-11-24T11:41:36.526Z,10.00
2022-11-24T11:44:29.942Z,10.02
2022-11-24T11:46:58.936Z,10.08
2022-11-24T11:49:25.503Z,10.06
2022-11-24T11:52:08.241Z,10.05
2022-11-24T11:54:52.750Z,9.97
2022-11-24T11:57:38.239Z,9.97
2022-11-24T12:00:20.294Z,10.01
2022-11-24T12:02:55.892Z,10.10
2022-11-24T12:05:37.039Z,10.27
2022-11-24T12:08:10.940Z,10.48
2022-11-24T12:10:50.152Z,10.57
2022-11-24T12:14:03.407Z,10.62
2022-11-24T12:16:41.721Z,10.58
2022-11-24T12:19:39.215Z,10.59
2022-11-24T12:22:36.514Z,10.71
2022-11-24T12:25:25.398Z,10.73
2022-11-24T12:28:21.698Z,10.71
2022-11-24T12:31:17.235Z,10.70
2022-11-24T12:34:00.952Z,10.78
2022-11-24T12:36:31.093Z,10.86
2022-11-24T12:39:12.765Z,10.89
2022-11-24T12:41:46.832Z,10.80
2022-11-24T12:44:43.007Z,10.79
2022-11-24T12:47:12.743Z,10.87
2022-11-24T12:50:09.013Z,11.02
2022-11-24T12:52:42.458Z,11.18
2022-11-24T12:55:21.074Z,11.15
2022-11-24T12:58:07.819Z,11.07
2022-11-24T13:00:46.821Z,11.01
2022-11-24T13:03:49.829Z,10.86
2022-11-24T13:06:27.297Z,10.75
2022-11-24T13:08:54.062Z,10.61
2022-11-24T13:11:23.531Z,10.60
2022-11-24T13:14:02.039Z,10.51
2022-11-24T13:16:36.303Z,10.49
2022-11-24T13:19:13.751Z,10.49
2022-11-24T13:21:40.120Z,10.43
2022-11-24T13:24:24.802Z,10.32
2022-11-24T13:27:18.771Z,10.25
2022-11-24T13:29:46.276Z,10.22
2022-11-24T13:32:12.581Z,10.28
2022-11-24T13:34:38.984Z,10.34
2022-11-24T13:37:41.643Z,10.35
2022-11-24T13:40:17.739Z,10.33
2022-11-24T13:43:10.474Z,10.23
2022-11-24T13:45:40.332Z,10.18
2022-11-24T13:48:19.263Z,10.18
2022-11-24T13:50:53.041Z,10.22
2022-11-24T13:53:29.095Z,10.18
2022-11-24T13:56:03.243Z,10.15
2022-11-24T13:58:35.992Z,10.08
2022-11-24T14:01:15.000Z,9.97
2022-11-24T14:04:07.067Z,9.93
2022-11-24T14:06:46.011Z,9.90
2022-11-24T14:09:34.973Z,9.97
2022-11-24T14:12:20.197Z,9.90
2022-11-24T14:14:48.972Z,9.82
2022-11-24T14:17:17.143Z,9.76
2022-11-24T14:19:47.698Z,9.63
2022-11-24T14:22:17.971Z,9.57
2022-11-24T14:24:45.697Z,9.45
2022-11-24T14:27:17.493Z,9.32
2022-11-24T14:29:58.736Z,9.28
2022-11-24T14:32:25.472Z,9.20
2022-11-24T14:34:52.084Z,9.15
2022-11-24T14:37:19.822Z,9.10
2022-11-24T14:39:46.412Z,9.07
2022-11-24T14:42:22.257Z,9.09
2022-11-24T14:44:58.975Z,9.11
2022-11-24T14:47:36.164Z,9.08
2022-11-24T14:50:07.899Z,9.04
2022-11-24T14:52:35.277Z,8.94
2022-11-24T14:55:21.495Z,8.83
2022-11-24T14:57:53.253Z,8.77
2022-11-24T15:00:27.324Z,8.68
2022-11-24T15:03:17.828Z,8.63
2022-11-24T15:05:59.447Z,8.63
2022-11-24T15:08:28.669Z,8.55
2022-11-24T15:11:03.521Z,8.48
2022-11-24T15:13:34.193Z,8.42
2022-11-24T15:16:22.053Z,8.32
2022-11-24T15:18:56.340Z,8.21
2022-11-24T15:21:36.675Z,8.12
2022-11-24T15:24:17.512Z,8.08
2022-11-24T15:26:45.015Z,8.03
2022-11-24T15:29:15.263Z,7.97
2022-11-24T15:31:50.945Z,7.90
2022-11-24T15:34:19.129Z,7.84
2022-11-24T15:36:45.562Z,7.79
2022-11-24T15:39:11.920Z,7.72
2022-11-24T15:41:38.297Z,7.67
2022-11-24T15:44:04.898Z,7.62
2022-11-24T15:46:38.395Z,7.62
2022-11-24T15:49:05.766Z,7.63
2022-11-24T15:51:32.608Z,7.53
2022-11-24T15:54:01.703Z,7.43
2022-11-24T15:56:34.528Z,7.37
2022-11-24T15:59:01.605Z,7.26
2022-11-24T16:01:31.712Z,7.18
2022-11-24T16:03:58.248Z,7.10
2022-11-24T16:06:25.571Z,7.13
2022-11-24T16:08:55.206Z,7.08
2022-11-24T16:11:22.609Z,7.04
2022-11-24T16:13:53.004Z,7.04
2022-11-24T16:16:21.431Z,6.99
2022-11-24T16:18:48.168Z,6.93
2022-11-24T16:21:14.723Z,6.84
2022-11-24T16:23:46.521Z,6.78
2022-11-24T16:26:12.935Z,6.66
2022-11-24T16:28:39.321Z,6.58
2022-11-24T16:31:05.807Z,6.48
2022-11-24T16:33:32.224Z,6.42
2022-11-24T16:35:58.892Z,6.35
2022-11-24T16:38:28.123Z,6.47
2022-11-24T16:40:56.246Z,6.56
2022-11-24T16:43:24.268Z,6.44
2022-11-24T16:46:00.757Z,6.42
2022-11-24T16:48:31.517Z,6.32
2022-11-24T16:51:08.044Z,6.28
2022-11-24T16:53:37.062Z,6.15
2022-11-24T16:56:03.841Z,6.08
2022-11-24T16:58:30.262Z,6.02
2022-11-24T17:01:04.171Z,5.93
2022-11-24T17:03:37.389Z,5.84
2022-11-24T17:06:05.818Z,5.79
2022-11-24T17:08:33.564Z,5.92
2022-11-24T17:11:06.331Z,5.80
2022-11-24T17:13:33.819Z,5.94
2022-11-24T17:16:07.290Z,5.85
2022-11-24T17:18:34.474Z,5.80
2022-11-24T17:21:07.800Z,5.70
2022-11-24T17:23:35.858Z,5.65
2022-11-24T17:26:03.810Z,5.61
2022-11-24T17:28:32.777Z,5.55
2022-11-24T17:30:59.397Z,5.58
2022-11-24T17:33:28.079Z,5.58
2022-11-24T17:35:54.534Z,5.60
2022-11-24T17:38:23.378Z,5.62
2022-11-24T17:40:52.253Z,5.61
2022-11-24T17:43:18.703Z,5.52
2022-11-24T17:45:52.705Z,5.48
2022-11-24T17:48:19.190Z,5.40
2022-11-24T17:50:45.627Z,5.41
2022-11-24T17:53:15.106Z,5.33
2022-11-24T17:55:42.068Z,5.32
2022-11-24T17:58:08.607Z,5.47
2022-11-24T18:00:35.119Z,5.40
2022-11-24T18:03:01.589Z,5.35
2022-11-24T18:05:27.938Z,5.42
2022-11-24T18:07:55.052Z,5.35
2022-11-24T18:10:21.487Z,5.34
2022-11-24T18:12:47.882Z,5.26
2022-11-24T18:15:16.834Z,5.24
2022-11-24T18:17:43.227Z,5.24
2022-11-24T18:20:10.610Z,5.17
2022-11-24T18:23:03.929Z,5.18
2022-11-24T18:25:23.457Z,5.12
2022-11-24T18:27:50.112Z,5.15
2022-11-24T18:30:16.780Z,5.14
2022-11-24T18:32:43.192Z,5.04
2022-11-24T18:35:10.176Z,5.03
2022-11-24T18:37:44.494Z,5.07
2022-11-24T18:40:16.177Z,5.03
2022-11-24T18:42:42.574Z,5.05
2022-11-24T18:45:11.516Z,5.19
2022-11-24T18:47:40.521Z,5.12
2022-11-24T18:50:07.940Z,5.13
2022-11-24T18:52:36.687Z,5.07
2022-11-24T18:55:05.654Z,4.99
2022-11-24T18:57:32.071Z,4.93
2022-11-24T18:59:58.665Z,4.89
2022-11-24T19:02:27.585Z,4.83
2022-11-24T19:04:54.124Z,4.82
2022-11-24T19:07:25.271Z,4.96
2022-11-24T19:09:54.173Z,4.93
2022-11-24T19:12:20.716Z,4.84
2022-11-24T19:14:47.212Z,4.81
2022-11-24T19:17:18.736Z,4.73
2022-11-24T19:19:45.266Z,4.68
2022-11-24T19:22:13.193Z,4.67
2022-11-24T19:24:39.956Z,4.64
2022-11-24T19:27:06.403Z,4.64
2022-11-24T19:29:32.938Z,4.60
2022-11-24T19:31:59.469Z,4.57
2022-11-24T19:34:26.064Z,4.52
2022-11-24T19:36:52.471Z,4.49
2022-11-24T19:39:19.098Z,4.46
2022-11-24T19:41:45.657Z,4.37
2022-11-24T19:44:12.831Z,4.33
2022-11-24T19:46:42.474Z,4.30
2022-11-24T19:49:09.027Z,4.25
2022-11-24T19:51:38.320Z,4.23
2022-11-24T19:54:06.629Z,4.25
2022-11-24T19:56:35.952Z,4.28
2022-11-24T19:59:04.577Z,4.20
2022-11-24T20:01:36.288Z,4.24
2022-11-24T20:04:05.487Z,4.28
2022-11-24T20:06:36.580Z,4.39
2022-11-24T20:09:05.230Z,4.40
2022-11-24T20:11:31.808Z,4.44
2022-11-24T20:14:01.823Z,4.50
2022-11-24T20:16:30.694Z,4.74
2022-11-24T20:19:08.446Z,4.61
2022-11-24T20:21:37.011Z,4.52
2022-11-24T20:24:14.701Z,4.47
2022-11-24T20:26:44.409Z,4.46
2022-11-24T20:29:12.869Z,4.48
2022-11-24T20:31:42.665Z,4.41
2022-11-24T20:34:10.103Z,4.38
2022-11-24T20:36:39.675Z,4.32
2022-11-24T20:39:09.840Z,4.30
2022-11-24T20:41:37.760Z,4.27
2022-11-24T20:44:13.501Z,4.28
2022-11-24T20:46:45.827Z,4.30
2022-11-24T20:49:15.901Z,4.36
2022-11-24T20:51:44.190Z,4.29
2022-11-24T20:54:12.830Z,4.36
2022-11-24T20:56:43.431Z,4.28
2022-11-24T20:59:21.699Z,4.28
2022-11-24T21:01:49.824Z,4.31
2022-11-24T21:04:22.722Z,4.32
2022-11-24T21:06:54.697Z,4.26
2022-11-24T21:09:21.235Z,4.39
2022-11-24T21:11:48.128Z,4.30
2022-11-24T21:14:15.092Z,4.29
2022-11-24T21:16:44.404Z,4.24
2022-11-24T21:19:13.550Z,4.25
2022-11-24T21:21:42.435Z,4.32
2022-11-24T21:24:14.911Z,4.34
2022-11-24T21:26:44.183Z,4.25
2022-11-24T21:29:13.042Z,4.23
2022-11-24T21:31:40.368Z,4.22
2022-11-24T21:34:10.628Z,4.16
2022-11-24T21:36:40.569Z,4.13
2022-11-24T21:39:10.342Z,4.14
2022-11-24T21:41:36.798Z,4.12
2022-11-24T21:44:03.605Z,4.03
2022-11-24T21:46:40.424Z,4.02
2022-11-24T21:49:13.540Z,4.02
2022-11-24T21:51:39.934Z,3.97
2022-11-24T21:54:06.407Z,3.97
2022-11-24T21:56:32.878Z,3.93
2022-11-24T21:58:59.339Z,3.93
2022-11-24T22:01:28.020Z,3.83
2022-11-24T22:03:55.527Z,3.77
2022-11-24T22:06:22.137Z,3.79
2022-11-24T22:08:50.219Z,3.71
2022-11-24T22:11:19.483Z,3.68
2022-11-24T22:13:46.270Z,3.65
2022-11-24T22:16:15.912Z,3.65
2022-11-24T22:18:44.020Z,3.63
2022-11-24T22:21:15.806Z,3.59
2022-11-24T22:23:42.682Z,3.61
2022-11-24T22:26:14.828Z,3.55
2022-11-24T22:28:42.136Z,3.51
2022-11-24T22:31:15.598Z,3.51
2022-11-24T22:33:43.656Z,3.44
2022-11-24T22:36:13.754Z,3.37
2022-11-24T22:38:41.197Z,3.42
2022-11-24T22:41:15.796Z,3.32
2022-11-24T22:43:43.522Z,3.36
2022-11-24T22:46:12.696Z,3.27
2022-11-24T22:48:40.032Z,3.24
2022-11-24T22:51:09.012Z,3.24
2022-11-24T22:53:38.018Z,3.19
2022-11-24T22:56:10.302Z,3.12
2022-11-24T22:58:37.877Z,3.09
2022-11-24T23:01:09.935Z,3.09
2022-11-24T23:03:37.504Z,3.05
2022-11-24T23:06:06.730Z,2.99
2022-11-24T23:08:34.777Z,2.95
2022-11-24T23:11:08.922Z,2.92
2022-11-24T23:13:35.592Z,2.89
2022-11-24T23:16:07.943Z,2.88
2022-11-24T23:18:34.622Z,2.82
2022-11-24T23:21:11.590Z,2.80
2022-11-24T23:23:41.245Z,2.78
2022-11-24T23:26:12.283Z,2.77
2022-11-24T23:28:39.716Z,2.70
2022-11-24T23:31:09.242Z,2.76
2022-11-24T23:33:36.183Z,2.68
2022-11-24T23:36:05.608Z,2.69
2022-11-24T23:38:35.100Z,2.69
2022-11-24T23:41:04.512Z,2.66
2022-11-24T23:43:34.722Z,2.66
2022-11-24T23:46:07.660Z,2.68
2022-11-24T23:48:34.888Z,2.66
2022-11-24T23:51:06.098Z,2.63
2022-11-24T23:53:33.745Z,2.72
2022-11-24T23:56:02.575Z,2.70
2022-11-24T23:58:29.606Z,2.71
